sensor_id;sensor_type;location;lat;lon;timestamp;pressure;altitude;pressure_sealevel;temperature;humidity
50057;BME280;36875;49.468;11.200;2023-08-06T00:00:40;97213.97;;;20.53;59.68
50057;BME280;36875;49.468;11.200;2023-08-06T00:03:05;97210.44;;;20.52;59.60
50057;BME280;36875;49.468;11.200;2023-08-06T00:05:32;97212.06;;;20.53;59.67
50057;BME280;36875;49.468;11.200;2023-08-06T00:07:58;97210.44;;;20.52;59.46
50057;BME280;36875;49.468;11.200;2023-08-06T00:10:23;97207.72;;;20.52;59.66
50057;BME280;36875;49.468;11.200;2023-08-06T00:12:49;97215.13;;;20.52;59.48
50057;BME280;36875;49.468;11.200;2023-08-06T00:15:14;97214.31;;;20.51;59.71
50057;BME280;36875;49.468;11.200;2023-08-06T00:17:40;97211.59;;;20.51;59.63
50057;BME280;36875;49.468;11.200;2023-08-06T00:20:06;97212.38;;;20.52;59.60
50057;BME280;36875;49.468;11.200;2023-08-06T00:22:35;97210.78;;;20.51;59.71
50057;BME280;36875;49.468;11.200;2023-08-06T00:25:01;97209.97;;;20.50;59.84
50057;BME280;36875;49.468;11.200;2023-08-06T00:27:27;97204.50;;;20.50;59.70
50057;BME280;36875;49.468;11.200;2023-08-06T00:29:52;97209.97;;;20.50;59.75
50057;BME280;36875;49.468;11.200;2023-08-06T00:32:18;97203.72;;;20.50;59.79
50057;BME280;36875;49.468;11.200;2023-08-06T00:34:44;97196.63;;;20.49;59.69
50057;BME280;36875;49.468;11.200;2023-08-06T00:37:09;97200.16;;;20.49;59.65
50057;BME280;36875;49.468;11.200;2023-08-06T00:39:36;97190.38;;;20.48;59.77
50057;BME280;36875;49.468;11.200;2023-08-06T00:42:02;97184.91;;;20.48;59.80
50057;BME280;36875;49.468;11.200;2023-08-06T00:44:28;97182.19;;;20.48;59.85
50057;BME280;36875;49.468;11.200;2023-08-06T00:46:54;97175.94;;;20.48;59.74
50057;BME280;36875;49.468;11.200;2023-08-06T00:49:20;97170.47;;;20.48;59.74
50057;BME280;36875;49.468;11.200;2023-08-06T00:51:46;97170.47;;;20.48;59.62
50057;BME280;36875;49.468;11.200;2023-08-06T00:54:12;97157.91;;;20.47;59.55
50057;BME280;36875;49.468;11.200;2023-08-06T00:56:41;97143.00;;;20.44;59.83
50057;BME280;36875;49.468;11.200;2023-08-06T00:59:07;97157.91;;;20.47;59.76
50057;BME280;36875;49.468;11.200;2023-08-06T01:01:34;97156.28;;;20.46;59.67
50057;BME280;36875;49.468;11.200;2023-08-06T01:04:00;97160.66;;;20.47;59.55
50057;BME280;36875;49.468;11.200;2023-08-06T01:06:34;97169.97;;;20.46;59.58
50057;BME280;36875;49.468;11.200;2023-08-06T01:09:09;97171.56;;;20.47;59.45
50057;BME280;36875;49.468;11.200;2023-08-06T01:11:47;97169.16;;;20.45;59.71
50057;BME280;36875;49.468;11.200;2023-08-06T01:14:21;97176.25;;;20.46;59.61
50057;BME280;36875;49.468;11.200;2023-08-06T01:16:50;97170.78;;;20.46;59.60
50057;BME280;36875;49.468;11.200;2023-08-06T01:19:16;97173.06;;;20.44;59.63
50057;BME280;36875;49.468;11.200;2023-08-06T01:21:43;97169.50;;;20.44;59.66
50057;BME280;36875;49.468;11.200;2023-08-06T01:24:09;97167.59;;;20.44;59.67
50057;BME280;36875;49.468;11.200;2023-08-06T01:26:39;97162.78;;;20.41;60.16
50057;BME280;36875;49.468;11.200;2023-08-06T01:29:11;97164.03;;;20.44;59.63
50057;BME280;36875;49.468;11.200;2023-08-06T01:31:42;97158.09;;;20.41;59.44
50057;BME280;36875;49.468;11.200;2023-08-06T01:34:11;97160.50;;;20.43;59.73
50057;BME280;36875;49.468;11.200;2023-08-06T01:36:42;97155.03;;;20.43;59.64
50057;BME280;36875;49.468;11.200;2023-08-06T01:39:08;97147.50;;;20.40;59.68
50057;BME280;36875;49.468;11.200;2023-08-06T01:41:34;97149.56;;;20.43;59.41
50057;BME280;36875;49.468;11.200;2023-08-06T01:43:59;97137.53;;;20.44;59.74
50057;BME280;36875;49.468;11.200;2023-08-06T01:46:25;97140.25;;;20.44;59.67
50057;BME280;36875;49.468;11.200;2023-08-06T01:48:50;97144.25;;;20.47;59.61
50057;BME280;36875;49.468;11.200;2023-08-06T01:51:16;97139.91;;;20.46;59.76
50057;BME280;36875;49.468;11.200;2023-08-06T01:53:44;97133.63;;;20.45;59.62
50057;BME280;36875;49.468;11.200;2023-08-06T01:56:09;97128.97;;;20.46;59.68
50057;BME280;36875;49.468;11.200;2023-08-06T01:58:35;97134.09;;;20.47;59.57
50057;BME280;36875;49.468;11.200;2023-08-06T02:01:01;97125.91;;;20.47;59.53
50057;BME280;36875;49.468;11.200;2023-08-06T02:03:26;97136.03;;;20.47;59.55
50057;BME280;36875;49.468;11.200;2023-08-06T02:05:52;97127.06;;;20.46;59.61
50057;BME280;36875;49.468;11.200;2023-08-06T02:08:17;97130.59;;;20.47;59.64
50057;BME280;36875;49.468;11.200;2023-08-06T02:10:44;97123.19;;;20.47;60.03
50057;BME280;36875;49.468;11.200;2023-08-06T02:13:09;97122.38;;;20.47;59.83
50057;BME280;36875;49.468;11.200;2023-08-06T02:15:35;97116.91;;;20.47;59.87
50057;BME280;36875;49.468;11.200;2023-08-06T02:18:00;97118.03;;;20.46;59.80
50057;BME280;36875;49.468;11.200;2023-08-06T02:20:26;97118.03;;;20.46;59.88
50057;BME280;36875;49.468;11.200;2023-08-06T02:22:51;97119.66;;;20.47;59.91
50057;BME280;36875;49.468;11.200;2023-08-06T02:25:17;97123.19;;;20.47;60.01
50057;BME280;36875;49.468;11.200;2023-08-06T02:27:44;97117.72;;;20.47;59.71
50057;BME280;36875;49.468;11.200;2023-08-06T02:30:09;97124.31;;;20.46;59.83
50057;BME280;36875;49.468;11.200;2023-08-06T02:32:35;97118.84;;;20.46;59.87
50057;BME280;36875;49.468;11.200;2023-08-06T02:35:01;97116.91;;;20.47;59.95
50057;BME280;36875;49.468;11.200;2023-08-06T02:37:27;97116.13;;;20.46;59.98
50057;BME280;36875;49.468;11.200;2023-08-06T02:39:52;97117.25;;;20.45;60.01
50057;BME280;36875;49.468;11.200;2023-08-06T02:42:17;97116.91;;;20.47;59.93
50057;BME280;36875;49.468;11.200;2023-08-06T02:44:44;97116.91;;;20.47;59.89
50057;BME280;36875;49.468;11.200;2023-08-06T02:47:10;97109.84;;;20.46;60.15
50057;BME280;36875;49.468;11.200;2023-08-06T02:49:35;97104.38;;;20.46;60.09
50057;BME280;36875;49.468;11.200;2023-08-06T02:52:01;97089.91;;;20.45;60.00
50057;BME280;36875;49.468;11.200;2023-08-06T02:54:26;97095.38;;;20.45;60.06
50057;BME280;36875;49.468;11.200;2023-08-06T02:56:52;97087.19;;;20.45;60.05
50057;BME280;36875;49.468;11.200;2023-08-06T02:59:17;97085.25;;;20.46;59.87
50057;BME280;36875;49.468;11.200;2023-08-06T03:01:44;97082.50;;;20.46;60.02
50057;BME280;36875;49.468;11.200;2023-08-06T03:04:09;97087.19;;;20.45;60.06
50057;BME280;36875;49.468;11.200;2023-08-06T03:06:35;97087.97;;;20.46;59.99
50057;BME280;36875;49.468;11.200;2023-08-06T03:09:00;97085.59;;;20.44;60.37
50057;BME280;36875;49.468;11.200;2023-08-06T03:11:26;97087.97;;;20.46;60.01
50057;BME280;36875;49.468;11.200;2023-08-06T03:13:51;97083.34;;;20.46;60.13
50057;BME280;36875;49.468;11.200;2023-08-06T03:16:17;97081.72;;;20.45;60.37
50057;BME280;36875;49.468;11.200;2023-08-06T03:18:43;97079.78;;;20.46;60.04
50057;BME280;36875;49.468;11.200;2023-08-06T03:21:09;97079.44;;;20.47;59.98
50057;BME280;36875;49.468;11.200;2023-08-06T03:23:34;97077.03;;;20.46;60.20
50057;BME280;36875;49.468;11.200;2023-08-06T03:26:01;97063.38;;;20.46;59.98
50057;BME280;36875;49.468;11.200;2023-08-06T03:28:26;97058.72;;;20.46;60.31
50057;BME280;36875;49.468;11.200;2023-08-06T03:30:59;97062.13;;;20.43;60.07
50057;BME280;36875;49.468;11.200;2023-08-06T03:33:24;97062.91;;;20.44;60.00
50057;BME280;36875;49.468;11.200;2023-08-06T03:35:51;97056.66;;;20.43;60.10
50057;BME280;36875;49.468;11.200;2023-08-06T03:38:16;97051.19;;;20.43;60.10
50057;BME280;36875;49.468;11.200;2023-08-06T03:40:42;97049.59;;;20.42;60.01
50057;BME280;36875;49.468;11.200;2023-08-06T03:43:08;97047.66;;;20.42;60.05
50057;BME280;36875;49.468;11.200;2023-08-06T03:45:34;97036.75;;;20.42;60.11
50057;BME280;36875;49.468;11.200;2023-08-06T03:47:59;97034.00;;;20.42;59.98
50057;BME280;36875;49.468;11.200;2023-08-06T03:50:25;97046.88;;;20.42;60.36
50057;BME280;36875;49.468;11.200;2023-08-06T03:52:51;97039.81;;;20.41;60.05
50057;BME280;36875;49.468;11.200;2023-08-06T03:55:17;97040.59;;;20.41;60.40
50057;BME280;36875;49.468;11.200;2023-08-06T03:57:42;97031.59;;;20.41;60.15
50057;BME280;36875;49.468;11.200;2023-08-06T04:00:08;97039.81;;;20.41;60.29
50057;BME280;36875;49.468;11.200;2023-08-06T04:02:34;97039.81;;;20.41;60.36
50057;BME280;36875;49.468;11.200;2023-08-06T04:05:00;97049.13;;;20.40;60.30
50057;BME280;36875;49.468;11.200;2023-08-06T04:07:26;97047.22;;;20.40;60.29
50057;BME280;36875;49.468;11.200;2023-08-06T04:09:57;97045.28;;;20.41;60.28
50057;BME280;36875;49.468;11.200;2023-08-06T04:12:23;97045.59;;;20.39;60.15
50057;BME280;36875;49.468;11.200;2023-08-06T04:14:49;97044.81;;;20.39;60.31
50057;BME280;36875;49.468;11.200;2023-08-06T04:17:15;97045.59;;;20.39;60.27
50057;BME280;36875;49.468;11.200;2023-08-06T04:19:40;97044.81;;;20.39;60.18
50057;BME280;36875;49.468;11.200;2023-08-06T04:22:07;97045.59;;;20.39;60.43
50057;BME280;36875;49.468;11.200;2023-08-06T04:24:33;97044.81;;;20.39;60.47
50057;BME280;36875;49.468;11.200;2023-08-06T04:27:00;97042.88;;;20.39;60.36
50057;BME280;36875;49.468;11.200;2023-08-06T04:29:25;97047.22;;;20.40;60.29
50057;BME280;36875;49.468;11.200;2023-08-06T04:31:50;97049.13;;;20.40;60.37
50057;BME280;36875;49.468;11.200;2023-08-06T04:34:16;97041.75;;;20.40;60.16
50057;BME280;36875;49.468;11.200;2023-08-06T04:36:41;97042.53;;;20.41;60.27
50057;BME280;36875;49.468;11.200;2023-08-06T04:39:07;97040.59;;;20.41;60.41
50057;BME280;36875;49.468;11.200;2023-08-06T04:41:32;97045.59;;;20.39;60.19
50057;BME280;36875;49.468;11.200;2023-08-06T04:43:59;97039.81;;;20.41;60.20
50057;BME280;36875;49.468;11.200;2023-08-06T04:46:25;97051.06;;;20.39;60.44
50057;BME280;36875;49.468;11.200;2023-08-06T04:48:50;97046.75;;;20.38;60.49
50057;BME280;36875;49.468;11.200;2023-08-06T04:51:15;97050.28;;;20.39;60.34
50057;BME280;36875;49.468;11.200;2023-08-06T04:53:41;97050.28;;;20.39;60.21
50057;BME280;36875;49.468;11.200;2023-08-06T04:56:06;97050.28;;;20.39;60.37
50057;BME280;36875;49.468;11.200;2023-08-06T04:58:32;97044.81;;;20.39;60.49
50057;BME280;36875;49.468;11.200;2023-08-06T05:00:59;97044.81;;;20.39;60.29
50057;BME280;36875;49.468;11.200;2023-08-06T05:03:24;97032.25;;;20.38;60.20
50057;BME280;36875;49.468;11.200;2023-08-06T05:05:50;97039.66;;;20.37;60.22
50057;BME280;36875;49.468;11.200;2023-08-06T05:08:15;97035.31;;;20.36;60.34
50057;BME280;36875;49.468;11.200;2023-08-06T05:10:42;97026.00;;;20.37;60.37
50057;BME280;36875;49.468;11.200;2023-08-06T05:13:08;97037.72;;;20.38;60.35
50057;BME280;36875;49.468;11.200;2023-08-06T05:15:33;97030.34;;;20.38;60.36
50057;BME280;36875;49.468;11.200;2023-08-06T05:18:00;97028.41;;;20.39;60.25
50057;BME280;36875;49.468;11.200;2023-08-06T05:20:27;97036.59;;;20.39;60.30
50057;BME280;36875;49.468;11.200;2023-08-06T05:22:53;97024.88;;;20.38;60.40
50057;BME280;36875;49.468;11.200;2023-08-06T05:25:18;97028.88;;;20.41;60.29
50057;BME280;36875;49.468;11.200;2023-08-06T05:27:44;97027.75;;;20.42;60.33
50057;BME280;36875;49.468;11.200;2023-08-06T05:30:10;97030.94;;;20.44;60.13
50057;BME280;36875;49.468;11.200;2023-08-06T05:32:35;97035.94;;;20.42;60.02
50057;BME280;36875;49.468;11.200;2023-08-06T05:35:03;97027.75;;;20.42;60.21
50057;BME280;36875;49.468;11.200;2023-08-06T05:37:28;97026.94;;;20.41;60.36
50057;BME280;36875;49.468;11.200;2023-08-06T05:39:54;97026.94;;;20.41;60.22
50057;BME280;36875;49.468;11.200;2023-08-06T05:42:19;97020.66;;;20.41;60.23
50057;BME280;36875;49.468;11.200;2023-08-06T05:44:45;97025.00;;;20.42;60.21
50057;BME280;36875;49.468;11.200;2023-08-06T05:47:10;97027.75;;;20.42;60.36
50057;BME280;36875;49.468;11.200;2023-08-06T05:49:36;97013.72;;;20.44;60.04
50057;BME280;36875;49.468;11.200;2023-08-06T05:52:03;97023.88;;;20.43;60.39
50057;BME280;36875;49.468;11.200;2023-08-06T05:54:31;97029.34;;;20.43;60.29
50057;BME280;36875;49.468;11.200;2023-08-06T05:56:56;97025.00;;;20.42;60.35
50057;BME280;36875;49.468;11.200;2023-08-06T05:59:22;97026.13;;;20.41;60.15
50057;BME280;36875;49.468;11.200;2023-08-06T06:01:47;97018.41;;;20.43;60.22
50057;BME280;36875;49.468;11.200;2023-08-06T06:04:13;97012.47;;;20.41;60.21
50057;BME280;36875;49.468;11.200;2023-08-06T06:06:38;97021.47;;;20.41;60.30
50057;BME280;36875;49.468;11.200;2023-08-06T06:09:06;97019.88;;;20.40;60.20
50057;BME280;36875;49.468;11.200;2023-08-06T06:11:31;97022.63;;;20.40;60.50
50057;BME280;36875;49.468;11.200;2023-08-06T06:13:57;97029.66;;;20.41;60.17
50057;BME280;36875;49.468;11.200;2023-08-06T06:16:22;97028.22;;;20.44;60.08
50057;BME280;36875;49.468;11.200;2023-08-06T06:18:47;97030.38;;;20.51;59.94
50057;BME280;36875;49.468;11.200;2023-08-06T06:21:13;97021.72;;;20.49;60.00
50057;BME280;36875;49.468;11.200;2023-08-06T06:23:38;97022.38;;;20.46;60.08
50057;BME280;36875;49.468;11.200;2023-08-06T06:26:05;97014.19;;;20.46;60.11
50057;BME280;36875;49.468;11.200;2023-08-06T06:28:31;97017.75;;;20.46;60.08
50057;BME280;36875;49.468;11.200;2023-08-06T06:31:00;97020.94;;;20.48;60.17
50057;BME280;36875;49.468;11.200;2023-08-06T06:33:25;97020.28;;;20.51;60.13
50057;BME280;36875;49.468;11.200;2023-08-06T06:35:50;97017.53;;;20.51;59.89
50057;BME280;36875;49.468;11.200;2023-08-06T06:38:16;97016.25;;;20.49;60.15
50057;BME280;36875;49.468;11.200;2023-08-06T06:40:41;97018.53;;;20.47;60.20
50057;BME280;36875;49.468;11.200;2023-08-06T06:43:08;97019.31;;;20.47;60.31
50057;BME280;36875;49.468;11.200;2023-08-06T06:45:34;97016.91;;;20.46;60.17
50057;BME280;36875;49.468;11.200;2023-08-06T06:47:59;97013.41;;;20.45;59.98
50057;BME280;36875;49.468;11.200;2023-08-06T06:50:25;97011.81;;;20.44;60.12
50057;BME280;36875;49.468;11.200;2023-08-06T06:52:51;97014.53;;;20.44;60.00
50057;BME280;36875;49.468;11.200;2023-08-06T06:55:16;97009.41;;;20.42;60.04
50057;BME280;36875;49.468;11.200;2023-08-06T06:57:42;97016.81;;;20.42;59.94
50057;BME280;36875;49.468;11.200;2023-08-06T07:00:10;97026.13;;;20.41;60.10
50057;BME280;36875;49.468;11.200;2023-08-06T07:02:35;97024.19;;;20.41;60.07
50057;BME280;36875;49.468;11.200;2023-08-06T07:05:01;97010.88;;;20.40;59.93
50057;BME280;36875;49.468;11.200;2023-08-06T07:07:26;97021.00;;;20.39;60.21
50057;BME280;36875;49.468;11.200;2023-08-06T07:09:52;97017.47;;;20.39;60.13
50057;BME280;36875;49.468;11.200;2023-08-06T07:12:17;97022.94;;;20.39;60.00
50057;BME280;36875;49.468;11.200;2023-08-06T07:14:43;97019.88;;;20.40;59.75
50057;BME280;36875;49.468;11.200;2023-08-06T07:17:09;97019.56;;;20.42;59.91
50057;BME280;36875;49.468;11.200;2023-08-06T07:19:35;97019.19;;;20.44;59.79
50057;BME280;36875;49.468;11.200;2023-08-06T07:22:00;97015.66;;;20.43;59.72
50057;BME280;36875;49.468;11.200;2023-08-06T07:24:26;97010.19;;;20.43;59.83
50057;BME280;36875;49.468;11.200;2023-08-06T07:26:51;97020.34;;;20.42;59.79
50057;BME280;36875;49.468;11.200;2023-08-06T07:29:18;97020.66;;;20.41;59.77
50057;BME280;36875;49.468;11.200;2023-08-06T07:31:46;97010.88;;;20.40;59.75
50057;BME280;36875;49.468;11.200;2023-08-06T07:34:13;97013.59;;;20.40;59.77
50057;BME280;36875;49.468;11.200;2023-08-06T07:36:39;97015.66;;;20.43;60.03
50057;BME280;36875;49.468;11.200;2023-08-06T07:39:06;97013.41;;;20.45;60.13
50057;BME280;36875;49.468;11.200;2023-08-06T07:41:32;97009.22;;;20.48;60.22
50057;BME280;36875;49.468;11.200;2023-08-06T07:43:57;97002.59;;;20.49;60.24
50057;BME280;36875;49.468;11.200;2023-08-06T07:46:23;97006.13;;;20.49;60.36
50057;BME280;36875;49.468;11.200;2023-08-06T07:48:49;97008.19;;;20.52;60.54
50057;BME280;36875;49.468;11.200;2023-08-06T07:51:15;96998.53;;;20.55;60.33
50057;BME280;36875;49.468;11.200;2023-08-06T07:53:41;97002.50;;;20.57;60.43
50057;BME280;36875;49.468;11.200;2023-08-06T07:56:06;96994.66;;;20.56;60.42
50057;BME280;36875;49.468;11.200;2023-08-06T07:58:32;97002.50;;;20.57;60.85
50057;BME280;36875;49.468;11.200;2023-08-06T08:00:57;96994.31;;;20.57;60.71
50057;BME280;36875;49.468;11.200;2023-08-06T08:03:23;96993.69;;;20.60;61.26
50057;BME280;36875;49.468;11.200;2023-08-06T08:05:48;96979.84;;;20.57;60.61
50057;BME280;36875;49.468;11.200;2023-08-06T08:08:15;96984.00;;;20.63;60.68
50057;BME280;36875;49.468;11.200;2023-08-06T08:10:41;96980.13;;;20.64;60.99
50057;BME280;36875;49.468;11.200;2023-08-06T08:13:07;96980.94;;;20.65;60.50
50057;BME280;36875;49.468;11.200;2023-08-06T08:15:33;96968.63;;;20.71;60.99
50057;BME280;36875;49.468;11.200;2023-08-06T08:17:59;96976.84;;;20.71;60.81
50057;BME280;36875;49.468;11.200;2023-08-06T08:20:25;96973.97;;;20.67;60.85
50057;BME280;36875;49.468;11.200;2023-08-06T08:22:56;96968.38;;;20.64;61.06
50057;BME280;36875;49.468;11.200;2023-08-06T08:25:23;96950.72;;;20.61;60.99
50057;BME280;36875;49.468;11.200;2023-08-06T08:27:49;96953.25;;;20.66;61.47
50057;BME280;36875;49.468;11.200;2023-08-06T08:30:14;96944.72;;;20.80;61.70
50057;BME280;36875;49.468;11.200;2023-08-06T08:32:40;96952.28;;;20.95;61.54
50057;BME280;36875;49.468;11.200;2023-08-06T08:35:06;96973.47;;;20.98;61.26
50057;BME280;36875;49.468;11.200;2023-08-06T08:37:31;96968.44;;;21.01;61.41
50057;BME280;36875;49.468;11.200;2023-08-06T08:39:57;96976.66;;;21.01;61.27
50057;BME280;36875;49.468;11.200;2023-08-06T08:42:24;96978.59;;;21.00;61.21
50057;BME280;36875;49.468;11.200;2023-08-06T08:44:49;96972.91;;;21.05;61.08
50057;BME280;36875;49.468;11.200;2023-08-06T08:47:15;96979.03;;;21.02;61.02
50057;BME280;36875;49.468;11.200;2023-08-06T08:49:42;96978.94;;;20.98;60.85
50057;BME280;36875;49.468;11.200;2023-08-06T08:52:10;96977.13;;;21.03;60.86
50057;BME280;36875;49.468;11.200;2023-08-06T08:54:38;96973.56;;;21.02;60.45
50057;BME280;36875;49.468;11.200;2023-08-06T08:57:04;96969.72;;;21.03;60.66
50057;BME280;36875;49.468;11.200;2023-08-06T08:59:33;96977.22;;;21.06;60.40
50057;BME280;36875;49.468;11.200;2023-08-06T09:02:00;96974.84;;;21.05;60.28
50057;BME280;36875;49.468;11.200;2023-08-06T09:04:26;96975.06;;;20.99;60.13
50057;BME280;36875;49.468;11.200;2023-08-06T09:06:54;96978.13;;;20.98;60.19
50057;BME280;36875;49.468;11.200;2023-08-06T09:09:25;96981.31;;;21.00;59.95
50057;BME280;36875;49.468;11.200;2023-08-06T09:11:51;96983.97;;;21.09;59.88
50057;BME280;36875;49.468;11.200;2023-08-06T09:14:18;96984.63;;;21.06;59.65
50057;BME280;36875;49.468;11.200;2023-08-06T09:16:45;96988.53;;;21.05;59.59
50057;BME280;36875;49.468;11.200;2023-08-06T09:19:12;96986.59;;;21.05;59.48
50057;BME280;36875;49.468;11.200;2023-08-06T09:21:38;96986.13;;;21.03;58.87
50057;BME280;36875;49.468;11.200;2023-08-06T09:24:07;96980.53;;;20.99;58.87
50057;BME280;36875;49.468;11.200;2023-08-06T09:26:33;96975.06;;;20.99;58.81
50057;BME280;36875;49.468;11.200;2023-08-06T09:28:59;96980.09;;;20.97;58.70
50057;BME280;36875;49.468;11.200;2023-08-06T09:31:32;96978.34;;;20.93;58.12
50057;BME280;36875;49.468;11.200;2023-08-06T09:33:59;96967.28;;;20.89;58.69
50057;BME280;36875;49.468;11.200;2023-08-06T09:36:27;96971.50;;;20.87;58.73
50057;BME280;36875;49.468;11.200;2023-08-06T09:38:52;96962.03;;;20.84;58.97
50057;BME280;36875;49.468;11.200;2023-08-06T09:41:26;96966.72;;;20.84;58.76
50057;BME280;36875;49.468;11.200;2023-08-06T09:43:52;96966.38;;;20.85;58.93
50057;BME280;36875;49.468;11.200;2023-08-06T09:46:18;96969.13;;;20.85;59.19
50057;BME280;36875;49.468;11.200;2023-08-06T09:48:48;96963.31;;;20.87;58.85
50057;BME280;36875;49.468;11.200;2023-08-06T09:51:16;96965.25;;;20.86;58.89
50057;BME280;36875;49.468;11.200;2023-08-06T09:53:42;96965.13;;;20.83;59.01
50057;BME280;36875;49.468;11.200;2023-08-06T09:56:08;96956.13;;;20.82;59.30
50057;BME280;36875;49.468;11.200;2023-08-06T09:58:36;96960.47;;;20.83;59.29
50057;BME280;36875;49.468;11.200;2023-08-06T10:01:02;96956.22;;;20.86;59.09
50057;BME280;36875;49.468;11.200;2023-08-06T10:03:29;96961.94;;;20.93;59.16
50057;BME280;36875;49.468;11.200;2023-08-06T10:05:55;96947.34;;;20.89;59.17
50057;BME280;36875;49.468;11.200;2023-08-06T10:08:22;96950.53;;;20.91;59.05
50057;BME280;36875;49.468;11.200;2023-08-06T10:10:48;96953.28;;;20.91;59.13
50057;BME280;36875;49.468;11.200;2023-08-06T10:13:13;96946.31;;;20.93;59.10
50057;BME280;36875;49.468;11.200;2023-08-06T10:15:40;96942.91;;;20.96;59.25
50057;BME280;36875;49.468;11.200;2023-08-06T10:18:06;96935.50;;;20.97;59.15
50057;BME280;36875;49.468;11.200;2023-08-06T10:20:33;96940.41;;;20.91;59.14
50057;BME280;36875;49.468;11.200;2023-08-06T10:23:02;96934.03;;;20.87;59.50
50057;BME280;36875;49.468;11.200;2023-08-06T10:25:31;96944.16;;;20.87;59.16
50057;BME280;36875;49.468;11.200;2023-08-06T10:27:58;96930.38;;;20.83;59.42
50057;BME280;36875;49.468;11.200;2023-08-06T10:30:25;96935.50;;;20.85;59.29
50057;BME280;36875;49.468;11.200;2023-08-06T10:32:53;96927.31;;;20.85;58.90
50057;BME280;36875;49.468;11.200;2023-08-06T10:35:29;96925.25;;;20.82;58.83
50057;BME280;36875;49.468;11.200;2023-08-06T10:37:58;96919.91;;;20.85;58.96
50057;BME280;36875;49.468;11.200;2023-08-06T10:40:24;96919.56;;;20.87;58.63
50057;BME280;36875;49.468;11.200;2023-08-06T10:42:52;96916.50;;;20.88;58.92
50057;BME280;36875;49.468;11.200;2023-08-06T10:45:19;96917.28;;;20.89;59.03
50057;BME280;36875;49.468;11.200;2023-08-06T10:47:45;96919.22;;;20.88;59.15
50057;BME280;36875;49.468;11.200;2023-08-06T10:50:12;96925.47;;;20.89;58.96
50057;BME280;36875;49.468;11.200;2023-08-06T10:52:44;96920.47;;;20.91;59.06
50057;BME280;36875;49.468;11.200;2023-08-06T10:55:10;96908.53;;;20.95;59.13
50057;BME280;36875;49.468;11.200;2023-08-06T10:57:36;96911.72;;;20.97;58.78
50057;BME280;36875;49.468;11.200;2023-08-06T11:00:04;96915.91;;;20.95;59.01
50057;BME280;36875;49.468;11.200;2023-08-06T11:02:33;96913.88;;;20.92;59.20
50057;BME280;36875;49.468;11.200;2023-08-06T11:05:05;96914.66;;;20.92;59.31
50057;BME280;36875;49.468;11.200;2023-08-06T11:07:30;96914.66;;;20.92;59.34
50057;BME280;36875;49.468;11.200;2023-08-06T11:10:01;96905.78;;;20.95;59.16
50057;BME280;36875;49.468;11.200;2023-08-06T11:12:28;96899.84;;;21.06;58.83
50057;BME280;36875;49.468;11.200;2023-08-06T11:14:54;96901.66;;;21.02;59.13
50057;BME280;36875;49.468;11.200;2023-08-06T11:17:22;96893.34;;;20.98;59.44
50057;BME280;36875;49.468;11.200;2023-08-06T11:19:48;96903.03;;;20.95;59.58
50057;BME280;36875;49.468;11.200;2023-08-06T11:22:14;96897.91;;;20.94;59.61
50057;BME280;36875;49.468;11.200;2023-08-06T11:24:39;96895.84;;;20.91;59.54
50057;BME280;36875;49.468;11.200;2023-08-06T11:27:11;96892.34;;;20.90;59.51
50057;BME280;36875;49.468;11.200;2023-08-06T11:29:37;96902.47;;;20.90;59.55
50057;BME280;36875;49.468;11.200;2023-08-06T11:32:03;96904.72;;;20.88;59.51
50057;BME280;36875;49.468;11.200;2023-08-06T11:34:31;96902.38;;;20.86;59.26
50057;BME280;36875;49.468;11.200;2023-08-06T11:36:57;96899.63;;;20.86;59.53
50057;BME280;36875;49.468;11.200;2023-08-06T11:39:22;96890.38;;;20.91;59.56
50057;BME280;36875;49.468;11.200;2023-08-06T11:41:49;96888.09;;;20.93;59.13
50057;BME280;36875;49.468;11.200;2023-08-06T11:44:14;96882.28;;;20.94;59.11
50057;BME280;36875;49.468;11.200;2023-08-06T11:46:52;96877.88;;;20.90;59.26
50057;BME280;36875;49.468;11.200;2023-08-06T11:49:21;96884.81;;;20.87;59.10
50057;BME280;36875;49.468;11.200;2023-08-06T11:51:49;96890.94;;;20.84;59.37
50057;BME280;36875;49.468;11.200;2023-08-06T11:54:14;96898.34;;;20.84;59.32
50057;BME280;36875;49.468;11.200;2023-08-06T11:56:40;96891.06;;;20.88;59.18
50057;BME280;36875;49.468;11.200;2023-08-06T11:59:05;96884.13;;;20.90;59.02
50057;BME280;36875;49.468;11.200;2023-08-06T12:01:31;96891.75;;;20.97;58.57
50057;BME280;36875;49.468;11.200;2023-08-06T12:03:58;96890.72;;;21.02;58.34
50057;BME280;36875;49.468;11.200;2023-08-06T12:06:27;96881.84;;;21.05;58.22
50057;BME280;36875;49.468;11.200;2023-08-06T12:08:53;96881.47;;;21.06;58.45
50057;BME280;36875;49.468;11.200;2023-08-06T12:11:21;96874.53;;;21.09;58.59
50057;BME280;36875;49.468;11.200;2023-08-06T12:13:50;96880.81;;;21.09;58.27
50057;BME280;36875;49.468;11.200;2023-08-06T12:16:16;96878.41;;;21.08;58.58
50057;BME280;36875;49.468;11.200;2023-08-06T12:18:44;96880.56;;;21.02;58.71
50057;BME280;36875;49.468;11.200;2023-08-06T12:21:09;96887.88;;;20.98;58.53
50057;BME280;36875;49.468;11.200;2023-08-06T12:23:35;96892.09;;;20.95;58.63
50057;BME280;36875;49.468;11.200;2023-08-06T12:26:02;96901.00;;;20.92;58.48
50057;BME280;36875;49.468;11.200;2023-08-06T12:28:28;96899.38;;;20.91;58.67
50057;BME280;36875;49.468;11.200;2023-08-06T12:30:53;96909.53;;;20.91;58.85
50057;BME280;36875;49.468;11.200;2023-08-06T12:33:20;96908.41;;;20.92;58.68
50057;BME280;36875;49.468;11.200;2023-08-06T12:35:46;96907.59;;;20.91;58.61
50057;BME280;36875;49.468;11.200;2023-08-06T12:38:11;96902.13;;;20.91;58.63
50057;BME280;36875;49.468;11.200;2023-08-06T12:40:38;96897.47;;;20.92;58.66
50057;BME280;36875;49.468;11.200;2023-08-06T12:43:05;96900.75;;;20.97;58.57
50057;BME280;36875;49.468;11.200;2023-08-06T12:45:31;96895.28;;;20.97;58.63